Minneapolis-St Paul International/Wold-Chamberlain Airport
KMSP : now visible

Airfield :











YOU CAN JOIN US ON...

 
LOGIN :

Register | Disclaimer

   EN    FR    IT 

 









Legend :    VFR   Marginal VFR   IFR   Intensive IFR   Very Intensive IFR
Visi :
Ceiling :
>= 8 km
>= 3000ft
5 to 8 km
1000 to 3000 ft
1500m to 5 km
500 to 1000 ft
800 to 1500m
200 to 500 ft
< 800m
< 200 ft
Symbols :   Thunderstorms  Fog  Heavy snow  Heavy precipitations  Wind > 20 kt






- Airport Elevation : 841 ft
- IATA code : MSP


KMSP - Minneapolis-St Paul International/Wold-Chamberlain

CURRENT METAR :
  • 050753Z 12009KT 10SM FEW011 OVC090 M02/M04 A3006 RMK AO2 SLP189 T10171039 $

EXPIRED METARs :
  • 050700Z 12012KT 10SM FEW009 OVC085 M02/M04 A3008 RMK AO2 T10221039 $
  • 050653Z 12012KT 10SM FEW070 OVC085 M02/M04 A3008 RMK AO2 SLP197 T10221039 $
  • 050633Z 11011KT 10SM FEW009 OVC070 M02/M04 A3010 RMK AO2 PRESFR T10221039 $
  • 050553Z 13006KT 2SM SCT008 BKN049 OVC070 M02/M03 A3014 RMK AO2 SFC VIS 9 SNE49 SLP216 4/001 P0002 60011 T10221033 10000 21028 400171028 58030 $
  • 050531Z 13007KT 2SM -SN BR FEW006 OVC030 M02/M04 A3014 RMK AO2 P0002 T10221039 $
  • 050514Z 12007KT 1 1/4SM -SN BR SCT007 OVC015 M03/M04 A3015 RMK AO2 TWR VIS 2 P0002 T10281039 $

TAF KMSP
Valid from the 05 at 06:00 until the 06 at 12:00 UTC


050524Z 0506/0612 11010KT 4SM -SN BR OVC045
FM050800 12013G21KT P6SM OVC070
FM051600 17010KT P6SM OVC030
FM052200 25012G22KT P6SM BKN025
FM060400 29024G35KT P6SM BKN020
FM061100 31018G25KT P6SM SCT050
KZMP FIR / North America



MET'MAP, your aeronautical weather chart ! - Copyright ORBIFLY December 2007 - Disclaimer

ORBIFLY MET'MAP TEAM :

Programming & Development : Alexandra Zaïnal
Concept & original design : Baudouin d'Aumeries
Assistance for programming : Marc-Olivier Méhu
Technical & hardware support : Manuel Goepfert

Contact : metmap@orbifly.com




SOURCES & CREDITS :

   NOAA       Earth
Advisory